sensor_id;sensor_type;location;lat;lon;timestamp;temperature;humidity
10538;DHT22;5317;49.048;8.468;2023-07-30T00:02:15;23.40;88.80
10538;DHT22;5317;49.048;8.468;2023-07-30T00:04:42;23.40;88.80
10538;DHT22;5317;49.048;8.468;2023-07-30T00:07:09;23.40;88.70
10538;DHT22;5317;49.048;8.468;2023-07-30T00:09:35;23.30;88.80
10538;DHT22;5317;49.048;8.468;2023-07-30T00:12:05;23.40;89.00
10538;DHT22;5317;49.048;8.468;2023-07-30T00:14:32;23.40;89.20
10538;DHT22;5317;49.048;8.468;2023-07-30T00:16:59;23.40;89.80
10538;DHT22;5317;49.048;8.468;2023-07-30T00:19:26;23.40;89.10
10538;DHT22;5317;49.048;8.468;2023-07-30T00:21:52;23.40;89.10
10538;DHT22;5317;49.048;8.468;2023-07-30T00:24:19;23.40;89.30
10538;DHT22;5317;49.048;8.468;2023-07-30T00:26:46;23.40;89.30
10538;DHT22;5317;49.048;8.468;2023-07-30T00:29:14;23.40;89.40
10538;DHT22;5317;49.048;8.468;2023-07-30T00:31:41;23.50;90.10
10538;DHT22;5317;49.048;8.468;2023-07-30T00:34:08;23.40;89.70
10538;DHT22;5317;49.048;8.468;2023-07-30T00:36:35;23.40;89.80
10538;DHT22;5317;49.048;8.468;2023-07-30T00:39:01;23.40;89.90
10538;DHT22;5317;49.048;8.468;2023-07-30T00:41:28;23.40;90.00
10538;DHT22;5317;49.048;8.468;2023-07-30T00:43:55;23.40;90.10
10538;DHT22;5317;49.048;8.468;2023-07-30T00:46:23;23.40;90.20
10538;DHT22;5317;49.048;8.468;2023-07-30T00:48:50;23.30;90.50
10538;DHT22;5317;49.048;8.468;2023-07-30T00:51:17;23.30;90.70
10538;DHT22;5317;49.048;8.468;2023-07-30T00:53:45;23.20;91.10
10538;DHT22;5317;49.048;8.468;2023-07-30T00:56:12;23.20;91.10
10538;DHT22;5317;49.048;8.468;2023-07-30T00:58:39;23.10;91.20
10538;DHT22;5317;49.048;8.468;2023-07-30T01:01:07;23.10;91.40
10538;DHT22;5317;49.048;8.468;2023-07-30T01:03:35;23.10;91.50
10538;DHT22;5317;49.048;8.468;2023-07-30T01:06:03;23.20;91.60
10538;DHT22;5317;49.048;8.468;2023-07-30T01:08:30;23.30;91.50
10538;DHT22;5317;49.048;8.468;2023-07-30T01:10:57;23.20;91.50
10538;DHT22;5317;49.048;8.468;2023-07-30T01:13:25;23.30;91.50
10538;DHT22;5317;49.048;8.468;2023-07-30T01:15:52;23.30;91.50
10538;DHT22;5317;49.048;8.468;2023-07-30T01:18:19;23.30;91.50
10538;DHT22;5317;49.048;8.468;2023-07-30T01:20:47;23.40;91.60
10538;DHT22;5317;49.048;8.468;2023-07-30T01:23:15;23.40;91.60
10538;DHT22;5317;49.048;8.468;2023-07-30T01:25:43;23.40;91.60
10538;DHT22;5317;49.048;8.468;2023-07-30T01:28:12;23.40;91.70
10538;DHT22;5317;49.048;8.468;2023-07-30T01:30:43;23.40;91.70
10538;DHT22;5317;49.048;8.468;2023-07-30T01:33:11;23.40;91.60
10538;DHT22;5317;49.048;8.468;2023-07-30T01:35:38;23.40;91.60
10538;DHT22;5317;49.048;8.468;2023-07-30T01:38:07;23.40;91.70
10538;DHT22;5317;49.048;8.468;2023-07-30T01:40:36;23.40;91.60
10538;DHT22;5317;49.048;8.468;2023-07-30T01:43:03;23.40;91.60
10538;DHT22;5317;49.048;8.468;2023-07-30T01:45:29;23.40;91.60
10538;DHT22;5317;49.048;8.468;2023-07-30T01:47:56;23.50;91.60
10538;DHT22;5317;49.048;8.468;2023-07-30T01:50:23;23.50;91.60
10538;DHT22;5317;49.048;8.468;2023-07-30T01:52:50;23.40;91.60
10538;DHT22;5317;49.048;8.468;2023-07-30T01:55:17;23.50;91.70
10538;DHT22;5317;49.048;8.468;2023-07-30T01:57:45;23.40;91.70
10538;DHT22;5317;49.048;8.468;2023-07-30T02:00:12;23.40;91.80
10538;DHT22;5317;49.048;8.468;2023-07-30T02:02:39;23.40;91.80
10538;DHT22;5317;49.048;8.468;2023-07-30T02:05:06;23.40;91.80
10538;DHT22;5317;49.048;8.468;2023-07-30T02:07:33;23.40;91.90
10538;DHT22;5317;49.048;8.468;2023-07-30T02:09:59;23.30;91.90
10538;DHT22;5317;49.048;8.468;2023-07-30T02:12:26;23.30;92.10
10538;DHT22;5317;49.048;8.468;2023-07-30T02:14:55;23.20;92.10
10538;DHT22;5317;49.048;8.468;2023-07-30T02:17:21;23.20;92.50
10538;DHT22;5317;49.048;8.468;2023-07-30T02:19:48;23.20;92.10
10538;DHT22;5317;49.048;8.468;2023-07-30T02:22:15;23.20;92.10
10538;DHT22;5317;49.048;8.468;2023-07-30T02:24:42;23.30;92.30
10538;DHT22;5317;49.048;8.468;2023-07-30T02:27:09;23.30;92.20
10538;DHT22;5317;49.048;8.468;2023-07-30T02:29:35;23.30;92.10
10538;DHT22;5317;49.048;8.468;2023-07-30T02:32:04;23.30;92.10
10538;DHT22;5317;49.048;8.468;2023-07-30T02:34:31;23.30;92.20
10538;DHT22;5317;49.048;8.468;2023-07-30T02:36:58;23.30;92.10
10538;DHT22;5317;49.048;8.468;2023-07-30T02:39:25;23.40;92.10
10538;DHT22;5317;49.048;8.468;2023-07-30T02:41:52;23.40;92.00
10538;DHT22;5317;49.048;8.468;2023-07-30T02:44:18;23.40;92.00
10538;DHT22;5317;49.048;8.468;2023-07-30T02:46:45;23.40;92.10
10538;DHT22;5317;49.048;8.468;2023-07-30T02:49:13;23.30;92.20
10538;DHT22;5317;49.048;8.468;2023-07-30T02:51:40;23.20;92.40
10538;DHT22;5317;49.048;8.468;2023-07-30T02:54:08;23.10;92.40
10538;DHT22;5317;49.048;8.468;2023-07-30T02:56:35;23.10;92.60
10538;DHT22;5317;49.048;8.468;2023-07-30T02:59:02;23.10;92.60
10538;DHT22;5317;49.048;8.468;2023-07-30T03:01:29;23.10;92.60
10538;DHT22;5317;49.048;8.468;2023-07-30T03:03:55;23.10;92.60
10538;DHT22;5317;49.048;8.468;2023-07-30T03:06:24;23.10;92.60
10538;DHT22;5317;49.048;8.468;2023-07-30T03:08:50;23.10;92.70
10538;DHT22;5317;49.048;8.468;2023-07-30T03:11:17;23.10;92.60
10538;DHT22;5317;49.048;8.468;2023-07-30T03:13:44;23.10;92.60
10538;DHT22;5317;49.048;8.468;2023-07-30T03:16:11;23.10;92.70
10538;DHT22;5317;49.048;8.468;2023-07-30T03:18:38;23.20;92.80
10538;DHT22;5317;49.048;8.468;2023-07-30T03:21:04;23.20;92.80
10538;DHT22;5317;49.048;8.468;2023-07-30T03:23:33;23.20;92.80
10538;DHT22;5317;49.048;8.468;2023-07-30T03:25:59;23.20;92.80
10538;DHT22;5317;49.048;8.468;2023-07-30T03:28:26;23.20;92.80
10538;DHT22;5317;49.048;8.468;2023-07-30T03:30:53;23.20;92.80
10538;DHT22;5317;49.048;8.468;2023-07-30T03:33:20;23.30;92.80
10538;DHT22;5317;49.048;8.468;2023-07-30T03:35:47;23.10;92.80
10538;DHT22;5317;49.048;8.468;2023-07-30T03:38:14;23.20;93.00
10538;DHT22;5317;49.048;8.468;2023-07-30T03:40:42;23.10;92.90
10538;DHT22;5317;49.048;8.468;2023-07-30T03:43:09;23.10;93.00
10538;DHT22;5317;49.048;8.468;2023-07-30T03:45:35;23.10;93.10
10538;DHT22;5317;49.048;8.468;2023-07-30T03:48:02;23.10;93.20
10538;DHT22;5317;49.048;8.468;2023-07-30T03:50:29;23.10;93.20
10538;DHT22;5317;49.048;8.468;2023-07-30T03:52:56;23.10;93.20
10538;DHT22;5317;49.048;8.468;2023-07-30T03:55:23;23.10;93.20
10538;DHT22;5317;49.048;8.468;2023-07-30T03:57:51;23.10;93.20
10538;DHT22;5317;49.048;8.468;2023-07-30T04:00:18;23.00;93.20
10538;DHT22;5317;49.048;8.468;2023-07-30T04:02:45;23.00;93.30
10538;DHT22;5317;49.048;8.468;2023-07-30T04:05:12;22.90;93.40
10538;DHT22;5317;49.048;8.468;2023-07-30T04:07:38;22.90;93.60
10538;DHT22;5317;49.048;8.468;2023-07-30T04:10:06;22.80;93.60
10538;DHT22;5317;49.048;8.468;2023-07-30T04:12:33;22.80;93.70
10538;DHT22;5317;49.048;8.468;2023-07-30T04:15:02;22.90;94.00
10538;DHT22;5317;49.048;8.468;2023-07-30T04:17:28;22.80;93.80
10538;DHT22;5317;49.048;8.468;2023-07-30T04:19:55;22.90;93.70
10538;DHT22;5317;49.048;8.468;2023-07-30T04:22:22;22.90;93.70
10538;DHT22;5317;49.048;8.468;2023-07-30T04:24:49;23.00;93.80
10538;DHT22;5317;49.048;8.468;2023-07-30T04:27:16;23.00;93.60
10538;DHT22;5317;49.048;8.468;2023-07-30T04:29:43;22.90;93.70
10538;DHT22;5317;49.048;8.468;2023-07-30T04:32:11;22.90;93.80
10538;DHT22;5317;49.048;8.468;2023-07-30T04:34:38;22.70;93.40
10538;DHT22;5317;49.048;8.468;2023-07-30T04:37:04;22.70;93.20
10538;DHT22;5317;49.048;8.468;2023-07-30T04:39:32;22.70;93.30
10538;DHT22;5317;49.048;8.468;2023-07-30T04:41:59;22.70;93.30
10538;DHT22;5317;49.048;8.468;2023-07-30T04:44:26;22.70;93.10
10538;DHT22;5317;49.048;8.468;2023-07-30T04:46:53;22.60;93.10
10538;DHT22;5317;49.048;8.468;2023-07-30T04:49:21;22.70;93.10
10538;DHT22;5317;49.048;8.468;2023-07-30T04:51:48;22.60;93.10
10538;DHT22;5317;49.048;8.468;2023-07-30T04:54:15;22.70;92.90
10538;DHT22;5317;49.048;8.468;2023-07-30T04:56:42;22.60;92.70
10538;DHT22;5317;49.048;8.468;2023-07-30T04:59:08;22.60;92.70
10538;DHT22;5317;49.048;8.468;2023-07-30T05:01:35;22.60;92.70
10538;DHT22;5317;49.048;8.468;2023-07-30T05:04:02;22.60;93.10
10538;DHT22;5317;49.048;8.468;2023-07-30T05:06:30;22.60;92.70
10538;DHT22;5317;49.048;8.468;2023-07-30T05:08:58;22.60;92.60
10538;DHT22;5317;49.048;8.468;2023-07-30T05:11:25;22.60;92.60
10538;DHT22;5317;49.048;8.468;2023-07-30T05:13:51;22.70;92.70
10538;DHT22;5317;49.048;8.468;2023-07-30T05:16:19;22.70;92.60
10538;DHT22;5317;49.048;8.468;2023-07-30T05:18:45;22.80;92.90
10538;DHT22;5317;49.048;8.468;2023-07-30T05:21:12;22.80;92.60
10538;DHT22;5317;49.048;8.468;2023-07-30T05:23:40;22.90;92.60
10538;DHT22;5317;49.048;8.468;2023-07-30T05:26:07;22.90;92.40
10538;DHT22;5317;49.048;8.468;2023-07-30T05:28:34;22.90;92.40
10538;DHT22;5317;49.048;8.468;2023-07-30T05:31:01;23.00;92.30
10538;DHT22;5317;49.048;8.468;2023-07-30T05:33:28;23.00;92.70
10538;DHT22;5317;49.048;8.468;2023-07-30T05:35:54;23.00;92.30
10538;DHT22;5317;49.048;8.468;2023-07-30T05:38:21;23.10;92.20
10538;DHT22;5317;49.048;8.468;2023-07-30T05:40:49;23.10;92.00
10538;DHT22;5317;49.048;8.468;2023-07-30T05:43:16;23.10;92.10
10538;DHT22;5317;49.048;8.468;2023-07-30T05:45:43;23.20;92.40
10538;DHT22;5317;49.048;8.468;2023-07-30T05:48:10;23.20;92.50
10538;DHT22;5317;49.048;8.468;2023-07-30T05:50:37;23.30;92.60
10538;DHT22;5317;49.048;8.468;2023-07-30T05:53:04;23.30;92.70
10538;DHT22;5317;49.048;8.468;2023-07-30T05:55:30;23.30;92.70
10538;DHT22;5317;49.048;8.468;2023-07-30T05:57:59;23.30;92.80
10538;DHT22;5317;49.048;8.468;2023-07-30T06:00:25;23.30;93.00
10538;DHT22;5317;49.048;8.468;2023-07-30T06:02:52;23.40;92.90
10538;DHT22;5317;49.048;8.468;2023-07-30T06:05:19;23.40;92.90
10538;DHT22;5317;49.048;8.468;2023-07-30T06:07:46;23.50;93.00
10538;DHT22;5317;49.048;8.468;2023-07-30T06:10:13;23.50;93.10
10538;DHT22;5317;49.048;8.468;2023-07-30T06:12:40;23.60;93.00
10538;DHT22;5317;49.048;8.468;2023-07-30T06:15:09;23.60;93.10
10538;DHT22;5317;49.048;8.468;2023-07-30T06:17:35;23.50;93.10
10538;DHT22;5317;49.048;8.468;2023-07-30T06:20:03;23.60;93.20
10538;DHT22;5317;49.048;8.468;2023-07-30T06:22:30;23.60;93.20
10538;DHT22;5317;49.048;8.468;2023-07-30T06:24:56;23.60;93.10
10538;DHT22;5317;49.048;8.468;2023-07-30T06:27:23;23.70;93.10
10538;DHT22;5317;49.048;8.468;2023-07-30T06:29:50;23.60;92.90
10538;DHT22;5317;49.048;8.468;2023-07-30T06:32:18;23.60;92.90
10538;DHT22;5317;49.048;8.468;2023-07-30T06:34:45;23.50;93.00
10538;DHT22;5317;49.048;8.468;2023-07-30T06:37:12;23.40;92.90
10538;DHT22;5317;49.048;8.468;2023-07-30T06:39:39;23.40;93.10
10538;DHT22;5317;49.048;8.468;2023-07-30T06:42:06;23.20;93.40
10538;DHT22;5317;49.048;8.468;2023-07-30T06:44:34;23.10;93.40
10538;DHT22;5317;49.048;8.468;2023-07-30T06:47:01;23.10;93.60
10538;DHT22;5317;49.048;8.468;2023-07-30T06:49:29;23.00;93.40
10538;DHT22;5317;49.048;8.468;2023-07-30T06:51:56;22.90;93.60
10538;DHT22;5317;49.048;8.468;2023-07-30T06:54:22;22.80;93.80
10538;DHT22;5317;49.048;8.468;2023-07-30T06:56:49;22.80;93.80
10538;DHT22;5317;49.048;8.468;2023-07-30T06:59:16;22.80;93.70
10538;DHT22;5317;49.048;8.468;2023-07-30T07:01:43;22.90;93.70
10538;DHT22;5317;49.048;8.468;2023-07-30T07:04:10;23.00;93.80
10538;DHT22;5317;49.048;8.468;2023-07-30T07:06:38;23.10;93.60
10538;DHT22;5317;49.048;8.468;2023-07-30T07:09:05;23.10;93.70
10538;DHT22;5317;49.048;8.468;2023-07-30T07:11:31;23.00;93.70
10538;DHT22;5317;49.048;8.468;2023-07-30T07:13:58;23.10;93.90
10538;DHT22;5317;49.048;8.468;2023-07-30T07:16:25;23.10;93.90
10538;DHT22;5317;49.048;8.468;2023-07-30T07:18:52;23.10;93.90
10538;DHT22;5317;49.048;8.468;2023-07-30T07:21:19;23.10;93.90
10538;DHT22;5317;49.048;8.468;2023-07-30T07:23:48;23.10;93.90
10538;DHT22;5317;49.048;8.468;2023-07-30T07:26:15;23.10;94.10
10538;DHT22;5317;49.048;8.468;2023-07-30T07:28:41;23.10;94.10
10538;DHT22;5317;49.048;8.468;2023-07-30T07:31:08;23.20;94.00
10538;DHT22;5317;49.048;8.468;2023-07-30T07:33:35;23.20;94.10
10538;DHT22;5317;49.048;8.468;2023-07-30T07:36:03;23.20;94.10
10538;DHT22;5317;49.048;8.468;2023-07-30T07:38:31;23.20;94.20
10538;DHT22;5317;49.048;8.468;2023-07-30T07:41:00;23.40;94.20
10538;DHT22;5317;49.048;8.468;2023-07-30T07:43:27;23.40;94.20
10538;DHT22;5317;49.048;8.468;2023-07-30T07:45:54;23.40;94.20
10538;DHT22;5317;49.048;8.468;2023-07-30T07:48:21;23.40;94.10
10538;DHT22;5317;49.048;8.468;2023-07-30T07:50:48;23.50;94.20
10538;DHT22;5317;49.048;8.468;2023-07-30T07:53:15;23.50;94.10
10538;DHT22;5317;49.048;8.468;2023-07-30T07:55:42;23.60;94.10
10538;DHT22;5317;49.048;8.468;2023-07-30T07:58:10;23.80;93.80
10538;DHT22;5317;49.048;8.468;2023-07-30T08:00:37;23.80;94.20
10538;DHT22;5317;49.048;8.468;2023-07-30T08:03:03;23.80;93.90
10538;DHT22;5317;49.048;8.468;2023-07-30T08:05:30;23.80;94.10
10538;DHT22;5317;49.048;8.468;2023-07-30T08:07:57;23.90;93.90
10538;DHT22;5317;49.048;8.468;2023-07-30T08:10:24;24.00;93.40
10538;DHT22;5317;49.048;8.468;2023-07-30T08:12:51;24.10;93.10
10538;DHT22;5317;49.048;8.468;2023-07-30T08:15:19;24.20;93.10
10538;DHT22;5317;49.048;8.468;2023-07-30T08:17:47;24.10;93.10
10538;DHT22;5317;49.048;8.468;2023-07-30T08:20:14;24.20;93.30
10538;DHT22;5317;49.048;8.468;2023-07-30T08:22:41;24.40;92.60
10538;DHT22;5317;49.048;8.468;2023-07-30T08:25:07;24.40;92.30
10538;DHT22;5317;49.048;8.468;2023-07-30T08:27:34;24.50;92.10
10538;DHT22;5317;49.048;8.468;2023-07-30T08:30:01;24.40;91.90
10538;DHT22;5317;49.048;8.468;2023-07-30T08:32:29;24.30;91.20
10538;DHT22;5317;49.048;8.468;2023-07-30T08:34:56;24.40;91.30
10538;DHT22;5317;49.048;8.468;2023-07-30T08:37:23;24.30;90.50
10538;DHT22;5317;49.048;8.468;2023-07-30T08:39:50;24.30;90.70
10538;DHT22;5317;49.048;8.468;2023-07-30T08:42:16;24.30;90.20
10538;DHT22;5317;49.048;8.468;2023-07-30T08:44:43;24.30;90.50
10538;DHT22;5317;49.048;8.468;2023-07-30T08:47:10;24.40;90.40
10538;DHT22;5317;49.048;8.468;2023-07-30T08:49:38;24.50;90.60
10538;DHT22;5317;49.048;8.468;2023-07-30T08:52:08;24.60;90.70
10538;DHT22;5317;49.048;8.468;2023-07-30T08:54:36;24.70;88.90
10538;DHT22;5317;49.048;8.468;2023-07-30T08:57:04;24.70;87.30
10538;DHT22;5317;49.048;8.468;2023-07-30T08:59:36;24.70;86.90
10538;DHT22;5317;49.048;8.468;2023-07-30T09:02:04;24.80;86.80
10538;DHT22;5317;49.048;8.468;2023-07-30T09:04:36;24.70;83.90
10538;DHT22;5317;49.048;8.468;2023-07-30T09:07:08;24.70;85.20
10538;DHT22;5317;49.048;8.468;2023-07-30T09:09:36;24.80;84.30
10538;DHT22;5317;49.048;8.468;2023-07-30T09:12:04;25.00;84.70
10538;DHT22;5317;49.048;8.468;2023-07-30T09:14:31;25.10;84.80
10538;DHT22;5317;49.048;8.468;2023-07-30T09:16:58;25.10;83.80
10538;DHT22;5317;49.048;8.468;2023-07-30T09:19:25;25.10;83.90
10538;DHT22;5317;49.048;8.468;2023-07-30T09:21:52;25.10;83.20
10538;DHT22;5317;49.048;8.468;2023-07-30T09:24:22;25.10;81.80
10538;DHT22;5317;49.048;8.468;2023-07-30T09:26:49;25.00;80.80
10538;DHT22;5317;49.048;8.468;2023-07-30T09:29:16;25.10;81.40
10538;DHT22;5317;49.048;8.468;2023-07-30T09:31:47;25.10;80.80
10538;DHT22;5317;49.048;8.468;2023-07-30T09:34:18;25.10;79.30
10538;DHT22;5317;49.048;8.468;2023-07-30T09:36:45;25.10;79.50
10538;DHT22;5317;49.048;8.468;2023-07-30T09:39:16;25.10;78.60
10538;DHT22;5317;49.048;8.468;2023-07-30T09:41:46;25.10;79.20
10538;DHT22;5317;49.048;8.468;2023-07-30T09:44:17;25.20;77.90
10538;DHT22;5317;49.048;8.468;2023-07-30T09:46:46;25.20;78.00
10538;DHT22;5317;49.048;8.468;2023-07-30T09:49:13;25.30;78.20
10538;DHT22;5317;49.048;8.468;2023-07-30T09:51:41;25.50;78.80
10538;DHT22;5317;49.048;8.468;2023-07-30T09:54:09;25.50;77.10
10538;DHT22;5317;49.048;8.468;2023-07-30T09:56:36;25.60;77.30
10538;DHT22;5317;49.048;8.468;2023-07-30T09:59:04;25.60;76.20
10538;DHT22;5317;49.048;8.468;2023-07-30T10:01:33;25.60;75.80
10538;DHT22;5317;49.048;8.468;2023-07-30T10:04:04;25.50;75.10
10538;DHT22;5317;49.048;8.468;2023-07-30T10:06:36;25.40;75.10
10538;DHT22;5317;49.048;8.468;2023-07-30T10:09:04;25.40;75.50
10538;DHT22;5317;49.048;8.468;2023-07-30T10:11:33;25.60;75.20
10538;DHT22;5317;49.048;8.468;2023-07-30T10:14:00;25.60;73.90
10538;DHT22;5317;49.048;8.468;2023-07-30T10:16:29;25.60;72.40
10538;DHT22;5317;49.048;8.468;2023-07-30T10:18:57;25.50;71.60
10538;DHT22;5317;49.048;8.468;2023-07-30T10:21:25;25.50;71.50
10538;DHT22;5317;49.048;8.468;2023-07-30T10:23:59;25.40;68.90
10538;DHT22;5317;49.048;8.468;2023-07-30T10:26:27;25.30;69.50
10538;DHT22;5317;49.048;8.468;2023-07-30T10:29:10;25.30;69.10
10538;DHT22;5317;49.048;8.468;2023-07-30T10:31:42;25.20;68.80
10538;DHT22;5317;49.048;8.468;2023-07-30T10:34:10;25.20;70.30
10538;DHT22;5317;49.048;8.468;2023-07-30T10:36:42;25.20;69.20
10538;DHT22;5317;49.048;8.468;2023-07-30T10:39:15;24.90;68.60
10538;DHT22;5317;49.048;8.468;2023-07-30T10:41:44;24.90;69.50
10538;DHT22;5317;49.048;8.468;2023-07-30T10:44:18;25.00;69.40
10538;DHT22;5317;49.048;8.468;2023-07-30T10:46:47;25.00;68.90
10538;DHT22;5317;49.048;8.468;2023-07-30T10:49:14;25.00;68.90
10538;DHT22;5317;49.048;8.468;2023-07-30T10:51:40;24.90;69.40
10538;DHT22;5317;49.048;8.468;2023-07-30T10:54:07;25.10;69.70
10538;DHT22;5317;49.048;8.468;2023-07-30T10:56:35;25.30;70.40
10538;DHT22;5317;49.048;8.468;2023-07-30T10:59:03;25.40;68.20
10538;DHT22;5317;49.048;8.468;2023-07-30T11:01:31;25.60;70.80
10538;DHT22;5317;49.048;8.468;2023-07-30T11:03:59;25.70;69.10
10538;DHT22;5317;49.048;8.468;2023-07-30T11:06:27;26.00;68.30
10538;DHT22;5317;49.048;8.468;2023-07-30T11:08:53;26.00;66.60
10538;DHT22;5317;49.048;8.468;2023-07-30T11:11:20;26.00;65.80
10538;DHT22;5317;49.048;8.468;2023-07-30T11:13:50;26.00;64.00
10538;DHT22;5317;49.048;8.468;2023-07-30T11:16:17;26.10;62.60
10538;DHT22;5317;49.048;8.468;2023-07-30T11:18:44;26.10;61.60
10538;DHT22;5317;49.048;8.468;2023-07-30T11:21:14;26.10;60.70
10538;DHT22;5317;49.048;8.468;2023-07-30T11:23:43;26.10;62.50
10538;DHT22;5317;49.048;8.468;2023-07-30T11:26:15;26.20;61.00
10538;DHT22;5317;49.048;8.468;2023-07-30T11:28:43;26.30;61.80
10538;DHT22;5317;49.048;8.468;2023-07-30T11:31:11;26.30;61.10
10538;DHT22;5317;49.048;8.468;2023-07-30T11:33:40;26.20;59.40
10538;DHT22;5317;49.048;8.468;2023-07-30T11:36:09;26.10;59.10
10538;DHT22;5317;49.048;8.468;2023-07-30T11:38:38;26.10;59.30
10538;DHT22;5317;49.048;8.468;2023-07-30T11:41:06;26.20;61.00
10538;DHT22;5317;49.048;8.468;2023-07-30T11:43:36;26.30;60.10
10538;DHT22;5317;49.048;8.468;2023-07-30T11:46:07;26.60;60.00
10538;DHT22;5317;49.048;8.468;2023-07-30T11:48:34;26.50;59.10
10538;DHT22;5317;49.048;8.468;2023-07-30T11:51:01;26.50;59.80
10538;DHT22;5317;49.048;8.468;2023-07-30T11:53:48;26.50;59.80
10538;DHT22;5317;49.048;8.468;2023-07-30T11:56:17;26.60;59.30
10538;DHT22;5317;49.048;8.468;2023-07-30T11:58:45;26.70;59.50
10538;DHT22;5317;49.048;8.468;2023-07-30T12:01:12;26.80;59.10
10538;DHT22;5317;49.048;8.468;2023-07-30T12:03:40;26.70;58.30
10538;DHT22;5317;49.048;8.468;2023-07-30T12:06:07;26.70;58.10
10538;DHT22;5317;49.048;8.468;2023-07-30T12:08:35;26.60;58.30
10538;DHT22;5317;49.048;8.468;2023-07-30T12:11:05;26.50;57.70
10538;DHT22;5317;49.048;8.468;2023-07-30T12:13:32;26.30;56.30
10538;DHT22;5317;49.048;8.468;2023-07-30T12:15:59;26.20;57.70
10538;DHT22;5317;49.048;8.468;2023-07-30T12:18:27;26.30;57.70
10538;DHT22;5317;49.048;8.468;2023-07-30T12:20:54;26.40;57.40
10538;DHT22;5317;49.048;8.468;2023-07-30T12:23:22;26.60;58.10
10538;DHT22;5317;49.048;8.468;2023-07-30T12:25:49;26.80;58.10
10538;DHT22;5317;49.048;8.468;2023-07-30T12:28:18;26.80;56.30
10538;DHT22;5317;49.048;8.468;2023-07-30T12:30:45;26.70;55.90
10538;DHT22;5317;49.048;8.468;2023-07-30T12:33:11;26.70;56.20
10538;DHT22;5317;49.048;8.468;2023-07-30T12:35:38;26.50;55.30
10538;DHT22;5317;49.048;8.468;2023-07-30T12:38:05;26.40;56.40
10538;DHT22;5317;49.048;8.468;2023-07-30T12:40:32;26.40;56.50
10538;DHT22;5317;49.048;8.468;2023-07-30T12:43:01;26.40;57.30
10538;DHT22;5317;49.048;8.468;2023-07-30T12:45:30;26.40;56.50
10538;DHT22;5317;49.048;8.468;2023-07-30T12:47:57;26.30;55.80
10538;DHT22;5317;49.048;8.468;2023-07-30T12:50:24;26.20;56.00
10538;DHT22;5317;49.048;8.468;2023-07-30T12:52:51;26.20;56.00
10538;DHT22;5317;49.048;8.468;2023-07-30T12:55:18;26.30;56.50
10538;DHT22;5317;49.048;8.468;2023-07-30T12:57:45;26.40;56.20
10538;DHT22;5317;49.048;8.468;2023-07-30T13:00:12;26.60;56.60
10538;DHT22;5317;49.048;8.468;2023-07-30T13:02:40;26.90;55.70
10538;DHT22;5317;49.048;8.468;2023-07-30T13:05:07;26.80;55.10
10538;DHT22;5317;49.048;8.468;2023-07-30T13:07:34;26.80;55.80
10538;DHT22;5317;49.048;8.468;2023-07-30T13:10:05;26.80;54.90
10538;DHT22;5317;49.048;8.468;2023-07-30T13:12:33;26.60;55.20
10538;DHT22;5317;49.048;8.468;2023-07-30T13:15:00;26.70;55.80
10538;DHT22;5317;49.048;8.468;2023-07-30T13:17:27;26.80;55.20
10538;DHT22;5317;49.048;8.468;2023-07-30T13:19:55;27.00;56.00
10538;DHT22;5317;49.048;8.468;2023-07-30T13:22:22;27.30;55.60
10538;DHT22;5317;49.048;8.468;2023-07-30T13:24:49;27.40;54.40
10538;DHT22;5317;49.048;8.468;2023-07-30T13:27:16;27.50;54.70
10538;DHT22;5317;49.048;8.468;2023-07-30T13:29:43;27.50;52.30
10538;DHT22;5317;49.048;8.468;2023-07-30T13:32:10;27.30;52.60
10538;DHT22;5317;49.048;8.468;2023-07-30T13:34:37;27.40;53.80
10538;DHT22;5317;49.048;8.468;2023-07-30T13:37:06;27.50;52.80
10538;DHT22;5317;49.048;8.468;2023-07-30T13:39:33;27.40;52.80
10538;DHT22;5317;49.048;8.468;2023-07-30T13:41:59;27.30;51.60
10538;DHT22;5317;49.048;8.468;2023-07-30T13:44:26;27.10;51.40
10538;DHT22;5317;49.048;8.468;2023-07-30T13:46:53;27.00;51.10
10538;DHT22;5317;49.048;8.468;2023-07-30T13:49:20;27.00;51.10
10538;DHT22;5317;49.048;8.468;2023-07-30T13:51:47;27.00;51.80
10538;DHT22;5317;49.048;8.468;2023-07-30T13:54:15;27.20;51.00
10538;DHT22;5317;49.048;8.468;2023-07-30T13:56:42;27.20;50.20
10538;DHT22;5317;49.048;8.468;2023-07-30T13:59:09;27.30;50.70
10538;DHT22;5317;49.048;8.468;2023-07-30T14:01:36;27.30;49.90
10538;DHT22;5317;49.048;8.468;2023-07-30T14:04:03;27.30;47.70
10538;DHT22;5317;49.048;8.468;2023-07-30T14:06:30;27.20;48.30
10538;DHT22;5317;49.048;8.468;2023-07-30T14:08:57;27.10;46.90
10538;DHT22;5317;49.048;8.468;2023-07-30T14:11:26;27.10;47.90
10538;DHT22;5317;49.048;8.468;2023-07-30T14:13:53;27.30;46.30
10538;DHT22;5317;49.048;8.468;2023-07-30T14:16:21;27.30;46.60
10538;DHT22;5317;49.048;8.468;2023-07-30T14:18:48;27.30;47.50
10538;DHT22;5317;49.048;8.468;2023-07-30T14:21:15;27.50;47.00
10538;DHT22;5317;49.048;8.468;2023-07-30T14:23:42;27.50;45.80
10538;DHT22;5317;49.048;8.468;2023-07-30T14:26:09;27.50;47.90
10538;DHT22;5317;49.048;8.468;2023-07-30T14:28:37;27.60;47.10
10538;DHT22;5317;49.048;8.468;2023-07-30T14:31:04;27.80;44.80
10538;DHT22;5317;49.048;8.468;2023-07-30T14:33:30;27.70;45.20
10538;DHT22;5317;49.048;8.468;2023-07-30T14:35:57;27.60;45.10
10538;DHT22;5317;49.048;8.468;2023-07-30T14:38:24;27.60;46.30
10538;DHT22;5317;49.048;8.468;2023-07-30T14:40:51;27.60;46.50
10538;DHT22;5317;49.048;8.468;2023-07-30T14:43:18;27.80;46.80
10538;DHT22;5317;49.048;8.468;2023-07-30T14:45:46;28.00;46.30
10538;DHT22;5317;49.048;8.468;2023-07-30T14:48:15;28.10;46.40
10538;DHT22;5317;49.048;8.468;2023-07-30T14:50:41;28.20;46.00
10538;DHT22;5317;49.048;8.468;2023-07-30T14:53:08;28.40;46.70
10538;DHT22;5317;49.048;8.468;2023-07-30T14:55:35;28.40;45.10
10538;DHT22;5317;49.048;8.468;2023-07-30T14:58:02;28.40;44.70
10538;DHT22;5317;49.048;8.468;2023-07-30T15:00:29;28.40;43.60
10538;DHT22;5317;49.048;8.468;2023-07-30T15:02:57;28.20;41.40
10538;DHT22;5317;49.048;8.468;2023-07-30T15:05:24;27.80;42.50
10538;DHT22;5317;49.048;8.468;2023-07-30T15:07:51;27.70;43.50
10538;DHT22;5317;49.048;8.468;2023-07-30T15:10:27;27.60;43.80
10538;DHT22;5317;49.048;8.468;2023-07-30T15:12:54;27.40;43.30
10538;DHT22;5317;49.048;8.468;2023-07-30T15:15:20;27.30;44.50
10538;DHT22;5317;49.048;8.468;2023-07-30T15:17:47;27.30;44.30
10538;DHT22;5317;49.048;8.468;2023-07-30T15:20:16;27.40;45.40
10538;DHT22;5317;49.048;8.468;2023-07-30T15:22:43;27.40;44.30
10538;DHT22;5317;49.048;8.468;2023-07-30T15:25:09;27.40;44.50
10538;DHT22;5317;49.048;8.468;2023-07-30T15:27:36;27.50;43.80
10538;DHT22;5317;49.048;8.468;2023-07-30T15:30:05;27.40;43.50
10538;DHT22;5317;49.048;8.468;2023-07-30T15:32:32;27.30;43.90
10538;DHT22;5317;49.048;8.468;2023-07-30T15:35:07;27.20;43.60
10538;DHT22;5317;49.048;8.468;2023-07-30T15:37:35;27.10;44.50
10538;DHT22;5317;49.048;8.468;2023-07-30T15:40:02;27.00;44.70
10538;DHT22;5317;49.048;8.468;2023-07-30T15:42:29;27.00;44.50
10538;DHT22;5317;49.048;8.468;2023-07-30T15:44:56;27.00;44.70
10538;DHT22;5317;49.048;8.468;2023-07-30T15:47:23;27.00;45.10